sensor_id;sensor_type;location;lat;lon;timestamp;P1;durP1;ratioP1;P2;durP2;ratioP2
12832;SDS011;6483;51.310;4.462;2022-09-21T00:01:17;3.37;;;2.60;;
12832;SDS011;6483;51.310;4.462;2022-09-21T00:03:51;3.63;;;2.70;;
12832;SDS011;6483;51.310;4.462;2022-09-21T00:06:19;3.77;;;2.67;;
12832;SDS011;6483;51.310;4.462;2022-09-21T00:08:46;7.00;;;2.77;;
12832;SDS011;6483;51.310;4.462;2022-09-21T00:11:17;3.10;;;2.80;;
12832;SDS011;6483;51.310;4.462;2022-09-21T00:13:45;5.50;;;3.00;;
12832;SDS011;6483;51.310;4.462;2022-09-21T00:16:12;5.20;;;2.70;;
12832;SDS011;6483;51.310;4.462;2022-09-21T00:18:39;6.07;;;2.90;;
12832;SDS011;6483;51.310;4.462;2022-09-21T00:21:05;4.63;;;2.87;;
12832;SDS011;6483;51.310;4.462;2022-09-21T00:23:35;5.00;;;2.90;;
12832;SDS011;6483;51.310;4.462;2022-09-21T00:26:09;8.07;;;3.50;;
12832;SDS011;6483;51.310;4.462;2022-09-21T00:28:36;6.33;;;3.30;;
12832;SDS011;6483;51.310;4.462;2022-09-21T00:31:05;8.07;;;3.20;;
12832;SDS011;6483;51.310;4.462;2022-09-21T00:33:36;3.30;;;3.00;;
12832;SDS011;6483;51.310;4.462;2022-09-21T00:36:03;4.80;;;2.80;;
12832;SDS011;6483;51.310;4.462;2022-09-21T00:38:32;4.77;;;3.13;;
12832;SDS011;6483;51.310;4.462;2022-09-21T00:40:59;2.97;;;2.63;;
12832;SDS011;6483;51.310;4.462;2022-09-21T00:43:29;6.80;;;3.00;;
12832;SDS011;6483;51.310;4.462;2022-09-21T00:46:05;5.53;;;3.30;;
12832;SDS011;6483;51.310;4.462;2022-09-21T00:48:48;3.93;;;3.30;;
12832;SDS011;6483;51.310;4.462;2022-09-21T00:51:17;4.90;;;3.27;;
12832;SDS011;6483;51.310;4.462;2022-09-21T00:53:46;3.10;;;2.90;;
12832;SDS011;6483;51.310;4.462;2022-09-21T00:56:18;3.77;;;3.10;;
12832;SDS011;6483;51.310;4.462;2022-09-21T00:58:45;4.20;;;3.17;;
12832;SDS011;6483;51.310;4.462;2022-09-21T01:01:16;4.53;;;3.30;;
12832;SDS011;6483;51.310;4.462;2022-09-21T01:03:46;4.50;;;3.67;;
12832;SDS011;6483;51.310;4.462;2022-09-21T01:06:18;5.60;;;3.23;;
12832;SDS011;6483;51.310;4.462;2022-09-21T01:08:51;5.10;;;3.07;;
12832;SDS011;6483;51.310;4.462;2022-09-21T01:11:25;6.40;;;3.30;;
12832;SDS011;6483;51.310;4.462;2022-09-21T01:14:14;5.87;;;3.13;;
12832;SDS011;6483;51.310;4.462;2022-09-21T01:17:03;4.70;;;3.07;;
12832;SDS011;6483;51.310;4.462;2022-09-21T01:29:04;3.23;;;2.93;;
12832;SDS011;6483;51.310;4.462;2022-09-21T01:32:20;2.97;;;2.73;;
12832;SDS011;6483;51.310;4.462;2022-09-21T01:35:15;6.80;;;2.80;;
12832;SDS011;6483;51.310;4.462;2022-09-21T01:40:33;6.50;;;3.30;;
12832;SDS011;6483;51.310;4.462;2022-09-21T01:43:03;7.17;;;3.23;;
12832;SDS011;6483;51.310;4.462;2022-09-21T01:45:37;7.93;;;3.70;;
12832;SDS011;6483;51.310;4.462;2022-09-21T01:48:08;4.37;;;3.80;;
12832;SDS011;6483;51.310;4.462;2022-09-21T01:50:47;3.60;;;3.30;;
12832;SDS011;6483;51.310;4.462;2022-09-21T01:53:38;5.77;;;3.60;;
12832;SDS011;6483;51.310;4.462;2022-09-21T01:56:15;4.33;;;3.07;;
12832;SDS011;6483;51.310;4.462;2022-09-21T01:59:12;4.43;;;3.57;;
12832;SDS011;6483;51.310;4.462;2022-09-21T02:02:10;5.67;;;3.67;;
12832;SDS011;6483;51.310;4.462;2022-09-21T02:04:43;6.20;;;3.30;;
12832;SDS011;6483;51.310;4.462;2022-09-21T02:07:12;7.47;;;3.50;;
12832;SDS011;6483;51.310;4.462;2022-09-21T02:09:41;3.97;;;3.57;;
12832;SDS011;6483;51.310;4.462;2022-09-21T02:12:07;3.93;;;3.50;;
12832;SDS011;6483;51.310;4.462;2022-09-21T02:14:33;4.73;;;3.60;;
12832;SDS011;6483;51.310;4.462;2022-09-21T02:20:23;4.03;;;3.40;;
12832;SDS011;6483;51.310;4.462;2022-09-21T02:23:15;3.30;;;3.00;;
12832;SDS011;6483;51.310;4.462;2022-09-21T02:26:11;4.93;;;3.13;;
12832;SDS011;6483;51.310;4.462;2022-09-21T02:28:52;6.90;;;3.00;;
12832;SDS011;6483;51.310;4.462;2022-09-21T02:34:01;3.53;;;2.90;;
12832;SDS011;6483;51.310;4.462;2022-09-21T02:39:34;5.17;;;3.23;;
12832;SDS011;6483;51.310;4.462;2022-09-21T02:42:15;4.30;;;3.37;;
12832;SDS011;6483;51.310;4.462;2022-09-21T02:44:51;8.20;;;3.63;;
12832;SDS011;6483;51.310;4.462;2022-09-21T02:50:45;4.43;;;3.30;;
12832;SDS011;6483;51.310;4.462;2022-09-21T02:53:15;3.83;;;3.43;;
12832;SDS011;6483;51.310;4.462;2022-09-21T02:55:50;10.63;;;4.03;;
12832;SDS011;6483;51.310;4.462;2022-09-21T02:58:18;4.80;;;3.87;;
12832;SDS011;6483;51.310;4.462;2022-09-21T03:00:46;5.00;;;4.27;;
12832;SDS011;6483;51.310;4.462;2022-09-21T03:03:16;4.20;;;3.80;;
12832;SDS011;6483;51.310;4.462;2022-09-21T03:05:44;4.00;;;3.53;;
12832;SDS011;6483;51.310;4.462;2022-09-21T03:08:13;4.83;;;3.53;;
12832;SDS011;6483;51.310;4.462;2022-09-21T03:10:39;4.90;;;3.97;;
12832;SDS011;6483;51.310;4.462;2022-09-21T03:13:06;5.43;;;3.50;;
12832;SDS011;6483;51.310;4.462;2022-09-21T03:15:33;4.70;;;3.60;;
12832;SDS011;6483;51.310;4.462;2022-09-21T03:18:06;7.07;;;3.87;;
12832;SDS011;6483;51.310;4.462;2022-09-21T03:20:36;7.50;;;3.80;;
12832;SDS011;6483;51.310;4.462;2022-09-21T03:23:04;6.00;;;3.87;;
12832;SDS011;6483;51.310;4.462;2022-09-21T03:25:33;5.20;;;4.20;;
12832;SDS011;6483;51.310;4.462;2022-09-21T03:28:02;7.87;;;4.30;;
12832;SDS011;6483;51.310;4.462;2022-09-21T03:30:28;6.30;;;3.90;;
12832;SDS011;6483;51.310;4.462;2022-09-21T03:32:57;6.23;;;4.03;;
12832;SDS011;6483;51.310;4.462;2022-09-21T03:35:25;5.23;;;3.83;;
12832;SDS011;6483;51.310;4.462;2022-09-21T03:37:51;5.30;;;3.70;;
12832;SDS011;6483;51.310;4.462;2022-09-21T03:40:19;6.27;;;4.30;;
12832;SDS011;6483;51.310;4.462;2022-09-21T03:42:45;4.80;;;4.27;;
12832;SDS011;6483;51.310;4.462;2022-09-21T03:45:11;5.67;;;4.43;;
12832;SDS011;6483;51.310;4.462;2022-09-21T03:47:40;8.13;;;4.87;;
12832;SDS011;6483;51.310;4.462;2022-09-21T03:50:09;5.70;;;4.97;;
12832;SDS011;6483;51.310;4.462;2022-09-21T03:52:36;6.70;;;4.33;;
12832;SDS011;6483;51.310;4.462;2022-09-21T03:55:03;5.03;;;4.27;;
12832;SDS011;6483;51.310;4.462;2022-09-21T03:57:30;7.37;;;4.60;;
12832;SDS011;6483;51.310;4.462;2022-09-21T03:59:58;5.37;;;4.30;;
12832;SDS011;6483;51.310;4.462;2022-09-21T04:02:24;6.53;;;4.30;;
12832;SDS011;6483;51.310;4.462;2022-09-21T04:04:52;5.37;;;4.40;;
12832;SDS011;6483;51.310;4.462;2022-09-21T04:07:18;5.83;;;4.13;;
12832;SDS011;6483;51.310;4.462;2022-09-21T04:09:44;6.17;;;5.10;;
12832;SDS011;6483;51.310;4.462;2022-09-21T04:12:13;5.00;;;4.50;;
12832;SDS011;6483;51.310;4.462;2022-09-21T04:14:42;8.20;;;4.23;;
12832;SDS011;6483;51.310;4.462;2022-09-21T04:17:11;6.40;;;4.60;;
12832;SDS011;6483;51.310;4.462;2022-09-21T04:19:37;5.80;;;4.67;;
12832;SDS011;6483;51.310;4.462;2022-09-21T04:22:06;6.57;;;4.73;;
12832;SDS011;6483;51.310;4.462;2022-09-21T04:24:32;5.33;;;4.57;;
12832;SDS011;6483;51.310;4.462;2022-09-21T04:27:01;6.57;;;4.40;;
12832;SDS011;6483;51.310;4.462;2022-09-21T04:29:26;5.53;;;4.60;;
12832;SDS011;6483;51.310;4.462;2022-09-21T04:31:52;7.17;;;4.83;;
12832;SDS011;6483;51.310;4.462;2022-09-21T04:34:21;5.77;;;4.87;;
12832;SDS011;6483;51.310;4.462;2022-09-21T04:36:47;5.23;;;4.70;;
12832;SDS011;6483;51.310;4.462;2022-09-21T04:39:12;6.93;;;5.43;;
12832;SDS011;6483;51.310;4.462;2022-09-21T04:41:38;6.13;;;5.53;;
12832;SDS011;6483;51.310;4.462;2022-09-21T04:44:06;6.23;;;5.30;;
12832;SDS011;6483;51.310;4.462;2022-09-21T04:46:32;8.57;;;5.27;;
12832;SDS011;6483;51.310;4.462;2022-09-21T04:48:58;6.30;;;5.03;;
12832;SDS011;6483;51.310;4.462;2022-09-21T04:51:26;10.13;;;5.30;;
12832;SDS011;6483;51.310;4.462;2022-09-21T04:53:52;7.30;;;5.57;;
12832;SDS011;6483;51.310;4.462;2022-09-21T04:56:18;6.10;;;4.97;;
12832;SDS011;6483;51.310;4.462;2022-09-21T04:58:43;6.13;;;5.00;;
12832;SDS011;6483;51.310;4.462;2022-09-21T05:01:12;5.97;;;5.27;;
12832;SDS011;6483;51.310;4.462;2022-09-21T05:03:38;11.63;;;5.57;;
12832;SDS011;6483;51.310;4.462;2022-09-21T05:06:07;8.23;;;5.70;;
12832;SDS011;6483;51.310;4.462;2022-09-21T05:08:35;6.67;;;5.47;;
12832;SDS011;6483;51.310;4.462;2022-09-21T05:11:19;8.37;;;5.90;;
12832;SDS011;6483;51.310;4.462;2022-09-21T05:13:45;6.37;;;5.77;;
12832;SDS011;6483;51.310;4.462;2022-09-21T05:16:12;8.27;;;6.10;;
12832;SDS011;6483;51.310;4.462;2022-09-21T05:18:38;8.83;;;6.03;;
12832;SDS011;6483;51.310;4.462;2022-09-21T05:21:04;5.87;;;5.27;;
12832;SDS011;6483;51.310;4.462;2022-09-21T05:23:31;8.60;;;6.17;;
12832;SDS011;6483;51.310;4.462;2022-09-21T05:25:59;7.40;;;6.40;;
12832;SDS011;6483;51.310;4.462;2022-09-21T05:28:25;7.63;;;5.43;;
12832;SDS011;6483;51.310;4.462;2022-09-21T05:30:54;7.93;;;6.13;;
12832;SDS011;6483;51.310;4.462;2022-09-21T05:33:24;6.80;;;5.90;;
12832;SDS011;6483;51.310;4.462;2022-09-21T05:38:55;6.63;;;5.40;;
12832;SDS011;6483;51.310;4.462;2022-09-21T05:41:21;8.70;;;6.37;;
12832;SDS011;6483;51.310;4.462;2022-09-21T05:43:48;11.37;;;6.50;;
12832;SDS011;6483;51.310;4.462;2022-09-21T05:46:19;7.53;;;5.77;;
12832;SDS011;6483;51.310;4.462;2022-09-21T05:48:54;10.50;;;6.53;;
12832;SDS011;6483;51.310;4.462;2022-09-21T05:54:14;10.73;;;6.67;;
12832;SDS011;6483;51.310;4.462;2022-09-21T06:05:43;7.63;;;6.50;;
12832;SDS011;6483;51.310;4.462;2022-09-21T06:08:15;7.23;;;6.50;;
12832;SDS011;6483;51.310;4.462;2022-09-21T06:10:41;8.90;;;7.07;;
12832;SDS011;6483;51.310;4.462;2022-09-21T06:13:07;9.07;;;6.67;;
12832;SDS011;6483;51.310;4.462;2022-09-21T06:15:36;11.63;;;7.00;;
12832;SDS011;6483;51.310;4.462;2022-09-21T06:18:06;10.17;;;7.63;;
12832;SDS011;6483;51.310;4.462;2022-09-21T06:20:34;7.70;;;6.73;;
12832;SDS011;6483;51.310;4.462;2022-09-21T06:23:04;8.43;;;6.33;;
12832;SDS011;6483;51.310;4.462;2022-09-21T06:25:31;8.30;;;6.63;;
12832;SDS011;6483;51.310;4.462;2022-09-21T06:28:01;7.33;;;6.60;;
12832;SDS011;6483;51.310;4.462;2022-09-21T06:30:28;9.53;;;7.60;;
12832;SDS011;6483;51.310;4.462;2022-09-21T06:32:57;13.73;;;8.27;;
12832;SDS011;6483;51.310;4.462;2022-09-21T06:35:24;10.37;;;7.27;;
12832;SDS011;6483;51.310;4.462;2022-09-21T06:38:03;10.53;;;7.80;;
12832;SDS011;6483;51.310;4.462;2022-09-21T06:40:31;9.73;;;7.67;;
12832;SDS011;6483;51.310;4.462;2022-09-21T06:42:59;11.00;;;8.23;;
12832;SDS011;6483;51.310;4.462;2022-09-21T06:45:27;11.40;;;8.33;;
12832;SDS011;6483;51.310;4.462;2022-09-21T06:47:54;10.27;;;7.93;;
12832;SDS011;6483;51.310;4.462;2022-09-21T06:50:23;10.27;;;8.63;;
12832;SDS011;6483;51.310;4.462;2022-09-21T06:52:49;12.50;;;9.63;;
12832;SDS011;6483;51.310;4.462;2022-09-21T06:55:19;13.47;;;10.17;;
12832;SDS011;6483;51.310;4.462;2022-09-21T06:57:45;11.53;;;9.53;;
12832;SDS011;6483;51.310;4.462;2022-09-21T07:00:11;13.23;;;9.23;;
12832;SDS011;6483;51.310;4.462;2022-09-21T07:02:41;11.87;;;10.27;;
12832;SDS011;6483;51.310;4.462;2022-09-21T07:05:10;15.53;;;10.57;;
12832;SDS011;6483;51.310;4.462;2022-09-21T07:07:37;13.70;;;10.37;;
12832;SDS011;6483;51.310;4.462;2022-09-21T07:10:04;14.63;;;9.77;;
12832;SDS011;6483;51.310;4.462;2022-09-21T07:12:36;13.03;;;9.80;;
12832;SDS011;6483;51.310;4.462;2022-09-21T07:15:03;15.47;;;10.03;;
12832;SDS011;6483;51.310;4.462;2022-09-21T07:17:37;14.40;;;10.50;;
12832;SDS011;6483;51.310;4.462;2022-09-21T07:20:03;15.27;;;10.90;;
12832;SDS011;6483;51.310;4.462;2022-09-21T07:22:30;15.17;;;11.07;;
12832;SDS011;6483;51.310;4.462;2022-09-21T07:24:59;17.87;;;11.67;;
12832;SDS011;6483;51.310;4.462;2022-09-21T07:27:26;18.70;;;12.07;;
12832;SDS011;6483;51.310;4.462;2022-09-21T07:29:53;21.47;;;13.93;;
12832;SDS011;6483;51.310;4.462;2022-09-21T07:32:18;22.70;;;14.13;;
12832;SDS011;6483;51.310;4.462;2022-09-21T07:34:44;21.97;;;14.47;;
12832;SDS011;6483;51.310;4.462;2022-09-21T07:37:13;21.60;;;14.80;;
12832;SDS011;6483;51.310;4.462;2022-09-21T07:39:40;20.57;;;13.40;;
12832;SDS011;6483;51.310;4.462;2022-09-21T07:42:06;18.43;;;13.50;;
12832;SDS011;6483;51.310;4.462;2022-09-21T07:44:35;26.93;;;14.10;;
12832;SDS011;6483;51.310;4.462;2022-09-21T07:47:00;25.73;;;15.87;;
12832;SDS011;6483;51.310;4.462;2022-09-21T07:49:27;20.10;;;13.37;;
12832;SDS011;6483;51.310;4.462;2022-09-21T07:51:54;20.87;;;14.73;;
12832;SDS011;6483;51.310;4.462;2022-09-21T07:54:19;23.65;;;14.40;;
12832;SDS011;6483;51.310;4.462;2022-09-21T07:56:48;23.88;;;13.52;;
12832;SDS011;6483;51.310;4.462;2022-09-21T07:59:32;18.42;;;12.63;;
12832;SDS011;6483;51.310;4.462;2022-09-21T08:02:00;15.90;;;12.07;;
12832;SDS011;6483;51.310;4.462;2022-09-21T08:04:26;18.13;;;11.68;;
12832;SDS011;6483;51.310;4.462;2022-09-21T08:06:51;16.88;;;10.32;;
12832;SDS011;6483;51.310;4.462;2022-09-21T08:09:17;18.42;;;9.90;;
12832;SDS011;6483;51.310;4.462;2022-09-21T08:11:43;13.48;;;8.63;;
12832;SDS011;6483;51.310;4.462;2022-09-21T08:14:10;13.07;;;7.75;;
12832;SDS011;6483;51.310;4.462;2022-09-21T08:16:43;9.98;;;7.22;;
12832;SDS011;6483;51.310;4.462;2022-09-21T08:19:10;12.43;;;7.00;;
12832;SDS011;6483;51.310;4.462;2022-09-21T08:21:36;14.88;;;5.85;;
12832;SDS011;6483;51.310;4.462;2022-09-21T08:24:01;8.27;;;5.63;;
12832;SDS011;6483;51.310;4.462;2022-09-21T08:26:27;10.40;;;5.70;;
12832;SDS011;6483;51.310;4.462;2022-09-21T08:28:53;10.35;;;5.05;;
12832;SDS011;6483;51.310;4.462;2022-09-21T08:31:21;7.60;;;4.63;;
12832;SDS011;6483;51.310;4.462;2022-09-21T08:33:48;8.50;;;3.92;;
12832;SDS011;6483;51.310;4.462;2022-09-21T08:36:14;7.35;;;3.78;;
12832;SDS011;6483;51.310;4.462;2022-09-21T08:38:40;8.13;;;3.83;;
12832;SDS011;6483;51.310;4.462;2022-09-21T08:44:08;5.28;;;2.90;;
12832;SDS011;6483;51.310;4.462;2022-09-21T08:47:07;8.80;;;2.55;;
12832;SDS011;6483;51.310;4.462;2022-09-21T08:49:37;4.60;;;2.28;;
12832;SDS011;6483;51.310;4.462;2022-09-21T08:52:06;6.38;;;2.28;;
12832;SDS011;6483;51.310;4.462;2022-09-21T08:57:28;5.15;;;2.00;;
12832;SDS011;6483;51.310;4.462;2022-09-21T08:59:55;4.88;;;1.95;;
12832;SDS011;6483;51.310;4.462;2022-09-21T09:23:53;5.25;;;1.65;;
12832;SDS011;6483;51.310;4.462;2022-09-21T09:26:32;4.65;;;1.40;;
12832;SDS011;6483;51.310;4.462;2022-09-21T09:29:25;4.68;;;1.40;;
12832;SDS011;6483;51.310;4.462;2022-09-21T09:31:57;2.83;;;1.27;;
12832;SDS011;6483;51.310;4.462;2022-09-21T09:34:27;3.92;;;1.33;;
12832;SDS011;6483;51.310;4.462;2022-09-21T09:37:16;5.13;;;1.45;;
12832;SDS011;6483;51.310;4.462;2022-09-21T09:39:42;4.07;;;1.20;;
12832;SDS011;6483;51.310;4.462;2022-09-21T09:45:19;2.10;;;0.95;;
12832;SDS011;6483;51.310;4.462;2022-09-21T09:50:35;2.13;;;0.75;;
12832;SDS011;6483;51.310;4.462;2022-09-21T09:53:05;1.95;;;0.85;;
12832;SDS011;6483;51.310;4.462;2022-09-21T09:56:04;5.15;;;1.10;;
12832;SDS011;6483;51.310;4.462;2022-09-21T09:58:36;4.10;;;0.95;;
12832;SDS011;6483;51.310;4.462;2022-09-21T10:01:03;4.13;;;1.05;;
12832;SDS011;6483;51.310;4.462;2022-09-21T10:03:32;3.70;;;1.13;;
12832;SDS011;6483;51.310;4.462;2022-09-21T10:05:58;4.78;;;1.00;;
12832;SDS011;6483;51.310;4.462;2022-09-21T10:11:03;1.88;;;0.93;;
12832;SDS011;6483;51.310;4.462;2022-09-21T10:13:34;3.90;;;0.82;;
12832;SDS011;6483;51.310;4.462;2022-09-21T10:16:02;5.63;;;1.45;;
12832;SDS011;6483;51.310;4.462;2022-09-21T10:21:21;3.35;;;1.00;;
12832;SDS011;6483;51.310;4.462;2022-09-21T10:23:52;2.40;;;0.85;;
12832;SDS011;6483;51.310;4.462;2022-09-21T10:26:18;2.95;;;0.80;;
12832;SDS011;6483;51.310;4.462;2022-09-21T10:28:58;2.22;;;0.90;;
12832;SDS011;6483;51.310;4.462;2022-09-21T10:32:02;2.72;;;0.80;;
12832;SDS011;6483;51.310;4.462;2022-09-21T10:34:31;3.83;;;0.77;;
12832;SDS011;6483;51.310;4.462;2022-09-21T10:37:01;3.28;;;0.90;;
12832;SDS011;6483;51.310;4.462;2022-09-21T10:39:50;2.25;;;0.70;;
12832;SDS011;6483;51.310;4.462;2022-09-21T10:42:17;3.55;;;0.82;;
12832;SDS011;6483;51.310;4.462;2022-09-21T10:44:44;3.85;;;0.80;;
12832;SDS011;6483;51.310;4.462;2022-09-21T10:47:57;2.13;;;1.00;;
12832;SDS011;6483;51.310;4.462;2022-09-21T10:50:38;1.52;;;0.60;;
12832;SDS011;6483;51.310;4.462;2022-09-21T10:55:36;1.80;;;0.60;;
12832;SDS011;6483;51.310;4.462;2022-09-21T10:58:14;3.28;;;0.80;;
12832;SDS011;6483;51.310;4.462;2022-09-21T11:00:43;3.28;;;0.60;;
12832;SDS011;6483;51.310;4.462;2022-09-21T11:03:36;1.20;;;0.70;;
12832;SDS011;6483;51.310;4.462;2022-09-21T11:06:07;3.83;;;0.60;;
12832;SDS011;6483;51.310;4.462;2022-09-21T11:08:43;1.10;;;0.70;;
12832;SDS011;6483;51.310;4.462;2022-09-21T11:17:38;3.83;;;0.63;;
12832;SDS011;6483;51.310;4.462;2022-09-21T11:20:18;1.90;;;0.50;;
12832;SDS011;6483;51.310;4.462;2022-09-21T11:23:10;1.73;;;0.70;;
12832;SDS011;6483;51.310;4.462;2022-09-21T11:26:11;3.50;;;0.50;;
12832;SDS011;6483;51.310;4.462;2022-09-21T11:29:10;1.42;;;0.60;;
12832;SDS011;6483;51.310;4.462;2022-09-21T11:32:03;0.93;;;0.70;;
12832;SDS011;6483;51.310;4.462;2022-09-21T11:35:25;3.63;;;0.80;;
12832;SDS011;6483;51.310;4.462;2022-09-21T11:43:43;2.08;;;0.90;;
12832;SDS011;6483;51.310;4.462;2022-09-21T11:49:44;2.28;;;0.80;;
12832;SDS011;6483;51.310;4.462;2022-09-21T12:01:15;3.13;;;0.85;;
12832;SDS011;6483;51.310;4.462;2022-09-21T12:12:25;4.50;;;1.02;;
12832;SDS011;6483;51.310;4.462;2022-09-21T12:15:08;6.30;;;1.05;;
12832;SDS011;6483;51.310;4.462;2022-09-21T12:17:51;3.22;;;0.70;;
12832;SDS011;6483;51.310;4.462;2022-09-21T12:23:09;4.40;;;1.00;;
12832;SDS011;6483;51.310;4.462;2022-09-21T12:25:51;2.42;;;0.80;;
12832;SDS011;6483;51.310;4.462;2022-09-21T12:31:14;2.90;;;1.00;;
12832;SDS011;6483;51.310;4.462;2022-09-21T12:33:49;2.15;;;0.80;;
12832;SDS011;6483;51.310;4.462;2022-09-21T12:36:28;1.75;;;0.80;;
12832;SDS011;6483;51.310;4.462;2022-09-21T12:39:44;2.50;;;0.80;;
12832;SDS011;6483;51.310;4.462;2022-09-21T12:42:39;3.40;;;0.77;;
12832;SDS011;6483;51.310;4.462;2022-09-21T12:45:22;1.40;;;0.60;;
12832;SDS011;6483;51.310;4.462;2022-09-21T12:48:16;2.83;;;0.70;;
12832;SDS011;6483;51.310;4.462;2022-09-21T12:53:49;2.90;;;0.93;;
12832;SDS011;6483;51.310;4.462;2022-09-21T12:56:27;3.80;;;0.70;;
12832;SDS011;6483;51.310;4.462;2022-09-21T13:01:43;3.00;;;0.93;;
12832;SDS011;6483;51.310;4.462;2022-09-21T13:09:57;1.67;;;0.80;;
12832;SDS011;6483;51.310;4.462;2022-09-21T13:12:30;1.50;;;0.60;;
12832;SDS011;6483;51.310;4.462;2022-09-21T13:15:11;0.75;;;0.52;;
12832;SDS011;6483;51.310;4.462;2022-09-21T13:20:37;1.92;;;0.73;;
12832;SDS011;6483;51.310;4.462;2022-09-21T13:23:04;1.40;;;0.50;;
12832;SDS011;6483;51.310;4.462;2022-09-21T13:25:37;2.40;;;0.70;;
12832;SDS011;6483;51.310;4.462;2022-09-21T13:28:19;1.45;;;0.45;;
12832;SDS011;6483;51.310;4.462;2022-09-21T13:30:49;3.28;;;0.85;;
12832;SDS011;6483;51.310;4.462;2022-09-21T13:33:40;1.73;;;0.75;;
12832;SDS011;6483;51.310;4.462;2022-09-21T13:37:31;2.50;;;0.63;;
12832;SDS011;6483;51.310;4.462;2022-09-21T13:39:53;2.15;;;0.70;;
12832;SDS011;6483;51.310;4.462;2022-09-21T13:44:59;1.83;;;0.60;;
12832;SDS011;6483;51.310;4.462;2022-09-21T13:47:34;1.23;;;0.60;;
12832;SDS011;6483;51.310;4.462;2022-09-21T13:53:04;1.95;;;0.80;;
12832;SDS011;6483;51.310;4.462;2022-09-21T13:55:54;4.22;;;0.90;;
12832;SDS011;6483;51.310;4.462;2022-09-21T13:58:31;1.77;;;0.70;;
12832;SDS011;6483;51.310;4.462;2022-09-21T14:04:14;2.50;;;0.85;;
12832;SDS011;6483;51.310;4.462;2022-09-21T14:06:48;2.08;;;0.98;;
12832;SDS011;6483;51.310;4.462;2022-09-21T14:09:21;3.03;;;0.82;;
12832;SDS011;6483;51.310;4.462;2022-09-21T14:11:57;2.53;;;0.88;;
12832;SDS011;6483;51.310;4.462;2022-09-21T14:14:30;2.22;;;0.70;;
12832;SDS011;6483;51.310;4.462;2022-09-21T14:16:58;2.63;;;0.80;;
12832;SDS011;6483;51.310;4.462;2022-09-21T14:29:55;1.70;;;0.60;;
12832;SDS011;6483;51.310;4.462;2022-09-21T14:35:42;1.17;;;0.60;;
12832;SDS011;6483;51.310;4.462;2022-09-21T14:38:27;1.73;;;0.70;;
12832;SDS011;6483;51.310;4.462;2022-09-21T14:41:05;2.72;;;0.77;;
12832;SDS011;6483;51.310;4.462;2022-09-21T14:43:33;1.65;;;0.57;;
12832;SDS011;6483;51.310;4.462;2022-09-21T14:51:51;2.47;;;0.82;;
12832;SDS011;6483;51.310;4.462;2022-09-21T14:54:45;2.05;;;0.73;;
12832;SDS011;6483;51.310;4.462;2022-09-21T15:03:18;2.58;;;0.82;;
12832;SDS011;6483;51.310;4.462;2022-09-21T15:09:32;1.33;;;0.63;;
12832;SDS011;6483;51.310;4.462;2022-09-21T15:12:37;1.90;;;0.65;;
12832;SDS011;6483;51.310;4.462;2022-09-21T15:18:11;3.15;;;0.90;;
12832;SDS011;6483;51.310;4.462;2022-09-21T15:20:54;2.17;;;0.88;;
12832;SDS011;6483;51.310;4.462;2022-09-21T15:23:29;2.83;;;0.70;;
12832;SDS011;6483;51.310;4.462;2022-09-21T15:25:58;3.22;;;0.80;;
12832;SDS011;6483;51.310;4.462;2022-09-21T15:28:31;1.80;;;0.82;;
12832;SDS011;6483;51.310;4.462;2022-09-21T15:31:03;1.83;;;0.68;;
12832;SDS011;6483;51.310;4.462;2022-09-21T15:33:34;5.47;;;0.82;;
12832;SDS011;6483;51.310;4.462;2022-09-21T15:36:02;4.22;;;1.27;;
12832;SDS011;6483;51.310;4.462;2022-09-21T15:38:32;2.60;;;0.85;;
12832;SDS011;6483;51.310;4.462;2022-09-21T15:41:00;4.10;;;1.10;;
12832;SDS011;6483;51.310;4.462;2022-09-21T15:43:27;3.25;;;1.80;;
12832;SDS011;6483;51.310;4.462;2022-09-21T15:45:57;5.15;;;2.95;;
12832;SDS011;6483;51.310;4.462;2022-09-21T15:48:38;6.22;;;3.92;;
12832;SDS011;6483;51.310;4.462;2022-09-21T15:51:18;3.75;;;1.80;;
12832;SDS011;6483;51.310;4.462;2022-09-21T15:53:53;4.32;;;2.67;;
12832;SDS011;6483;51.310;4.462;2022-09-21T15:56:29;7.68;;;3.65;;
12832;SDS011;6483;51.310;4.462;2022-09-21T15:58:58;7.35;;;3.25;;
12832;SDS011;6483;51.310;4.462;2022-09-21T16:01:55;5.18;;;3.03;;
12832;SDS011;6483;51.310;4.462;2022-09-21T16:04:25;5.88;;;3.22;;
12832;SDS011;6483;51.310;4.462;2022-09-21T16:07:06;2.95;;;1.90;;
12832;SDS011;6483;51.310;4.462;2022-09-21T16:09:48;3.05;;;1.35;;
12832;SDS011;6483;51.310;4.462;2022-09-21T16:15:06;6.55;;;2.13;;
12832;SDS011;6483;51.310;4.462;2022-09-21T16:17:58;4.82;;;2.28;;
12832;SDS011;6483;51.310;4.462;2022-09-21T16:20:42;7.30;;;2.80;;
12832;SDS011;6483;51.310;4.462;2022-09-21T16:23:11;5.05;;;2.33;;
12832;SDS011;6483;51.310;4.462;2022-09-21T16:26:01;6.50;;;2.42;;
12832;SDS011;6483;51.310;4.462;2022-09-21T16:28:41;3.78;;;1.30;;
12832;SDS011;6483;51.310;4.462;2022-09-21T16:33:57;4.88;;;3.03;;
12832;SDS011;6483;51.310;4.462;2022-09-21T16:36:43;5.32;;;3.33;;
12832;SDS011;6483;51.310;4.462;2022-09-21T16:39:10;3.95;;;2.90;;
12832;SDS011;6483;51.310;4.462;2022-09-21T16:41:39;4.80;;;2.47;;
12832;SDS011;6483;51.310;4.462;2022-09-21T16:44:15;5.45;;;3.17;;
12832;SDS011;6483;51.310;4.462;2022-09-21T16:47:03;5.20;;;2.88;;
12832;SDS011;6483;51.310;4.462;2022-09-21T16:49:39;2.05;;;1.60;;
12832;SDS011;6483;51.310;4.462;2022-09-21T16:52:08;2.75;;;1.23;;
12832;SDS011;6483;51.310;4.462;2022-09-21T16:54:43;3.45;;;1.00;;
12832;SDS011;6483;51.310;4.462;2022-09-21T16:57:10;2.03;;;0.98;;
12832;SDS011;6483;51.310;4.462;2022-09-21T16:59:37;1.55;;;1.20;;
12832;SDS011;6483;51.310;4.462;2022-09-21T17:02:06;4.63;;;1.42;;
12832;SDS011;6483;51.310;4.462;2022-09-21T17:04:38;3.85;;;1.50;;
12832;SDS011;6483;51.310;4.462;2022-09-21T17:07:04;3.80;;;2.83;;
12832;SDS011;6483;51.310;4.462;2022-09-21T17:12:00;3.22;;;2.30;;
12832;SDS011;6483;51.310;4.462;2022-09-21T17:14:28;2.58;;;2.05;;
12832;SDS011;6483;51.310;4.462;2022-09-21T17:16:59;3.25;;;1.80;;
12832;SDS011;6483;51.310;4.462;2022-09-21T17:19:32;2.78;;;1.52;;
12832;SDS011;6483;51.310;4.462;2022-09-21T17:21:59;2.58;;;1.40;;
12832;SDS011;6483;51.310;4.462;2022-09-21T17:24:26;2.22;;;1.50;;
12832;SDS011;6483;51.310;4.462;2022-09-21T17:26:55;4.40;;;1.70;;
12832;SDS011;6483;51.310;4.462;2022-09-21T17:29:22;1.83;;;1.13;;
12832;SDS011;6483;51.310;4.462;2022-09-21T17:31:51;1.45;;;1.00;;
12832;SDS011;6483;51.310;4.462;2022-09-21T17:34:19;2.05;;;0.85;;
12832;SDS011;6483;51.310;4.462;2022-09-21T17:36:46;2.78;;;1.20;;
12832;SDS011;6483;51.310;4.462;2022-09-21T17:39:18;2.92;;;1.33;;
12832;SDS011;6483;51.310;4.462;2022-09-21T17:47:21;3.15;;;1.45;;
12832;SDS011;6483;51.310;4.462;2022-09-21T17:50:16;2.03;;;1.17;;
12832;SDS011;6483;51.310;4.462;2022-09-21T17:52:53;1.48;;;1.20;;
12832;SDS011;6483;51.310;4.462;2022-09-21T17:55:41;2.88;;;1.48;;
12832;SDS011;6483;51.310;4.462;2022-09-21T18:04:04;6.15;;;2.22;;
12832;SDS011;6483;51.310;4.462;2022-09-21T18:06:36;3.00;;;2.30;;
12832;SDS011;6483;51.310;4.462;2022-09-21T18:09:02;4.63;;;2.77;;
12832;SDS011;6483;51.310;4.462;2022-09-21T18:14:54;4.13;;;2.17;;
12832;SDS011;6483;51.310;4.462;2022-09-21T18:17:41;2.57;;;1.90;;
12832;SDS011;6483;51.310;4.462;2022-09-21T18:23:08;7.63;;;3.80;;
12832;SDS011;6483;51.310;4.462;2022-09-21T18:25:59;17.60;;;6.40;;
12832;SDS011;6483;51.310;4.462;2022-09-21T18:33:54;12.77;;;6.53;;
12832;SDS011;6483;51.310;4.462;2022-09-21T18:36:30;13.83;;;7.67;;
12832;SDS011;6483;51.310;4.462;2022-09-21T18:42:08;7.67;;;4.53;;
12832;SDS011;6483;51.310;4.462;2022-09-21T18:44:59;3.47;;;2.50;;
12832;SDS011;6483;51.310;4.462;2022-09-21T18:50:58;4.90;;;2.40;;
12832;SDS011;6483;51.310;4.462;2022-09-21T18:56:14;5.40;;;2.37;;
12832;SDS011;6483;51.310;4.462;2022-09-21T18:58:46;2.73;;;1.80;;
12832;SDS011;6483;51.310;4.462;2022-09-21T19:01:33;2.70;;;1.90;;
12832;SDS011;6483;51.310;4.462;2022-09-21T19:04:03;3.00;;;1.67;;
12832;SDS011;6483;51.310;4.462;2022-09-21T19:06:41;2.50;;;1.80;;
12832;SDS011;6483;51.310;4.462;2022-09-21T19:12:22;2.07;;;1.70;;